sensor_id;sensor_type;location;lat;lon;timestamp;temperature;humidity
14049;DHT22;7099;53.922;10.728;2023-01-20T00:00:52;0.20;73.10
14049;DHT22;7099;53.922;10.728;2023-01-20T00:04:57;0.20;73.20
14049;DHT22;7099;53.922;10.728;2023-01-20T00:09:04;0.20;73.40
14049;DHT22;7099;53.922;10.728;2023-01-20T00:13:10;0.20;73.60
14049;DHT22;7099;53.922;10.728;2023-01-20T00:17:15;0.20;73.80
14049;DHT22;7099;53.922;10.728;2023-01-20T00:21:21;0.20;73.80
14049;DHT22;7099;53.922;10.728;2023-01-20T00:25:27;0.20;73.70
14049;DHT22;7099;53.922;10.728;2023-01-20T00:29:33;0.20;73.80
14049;DHT22;7099;53.922;10.728;2023-01-20T00:33:38;0.10;73.70
14049;DHT22;7099;53.922;10.728;2023-01-20T00:37:44;0.10;73.70
14049;DHT22;7099;53.922;10.728;2023-01-20T00:41:50;0.10;73.90
14049;DHT22;7099;53.922;10.728;2023-01-20T00:45:55;0.10;73.80
14049;DHT22;7099;53.922;10.728;2023-01-20T00:50:01;0.10;73.70
14049;DHT22;7099;53.922;10.728;2023-01-20T00:54:06;0.10;73.70
14049;DHT22;7099;53.922;10.728;2023-01-20T00:58:12;0.00;73.90
14049;DHT22;7099;53.922;10.728;2023-01-20T01:02:17;0.10;73.90
14049;DHT22;7099;53.922;10.728;2023-01-20T01:06:23;0.00;74.10
14049;DHT22;7099;53.922;10.728;2023-01-20T01:10:28;0.00;73.90
14049;DHT22;7099;53.922;10.728;2023-01-20T01:14:34;0.00;74.10
14049;DHT22;7099;53.922;10.728;2023-01-20T01:18:40;0.00;74.50
14049;DHT22;7099;53.922;10.728;2023-01-20T01:22:47;0.00;73.80
14049;DHT22;7099;53.922;10.728;2023-01-20T01:26:53;0.00;73.70
14049;DHT22;7099;53.922;10.728;2023-01-20T01:31:03;0.00;73.60
14049;DHT22;7099;53.922;10.728;2023-01-20T01:35:09;-0.10;73.60
14049;DHT22;7099;53.922;10.728;2023-01-20T01:39:15;-0.10;73.80
14049;DHT22;7099;53.922;10.728;2023-01-20T01:43:26;0.00;73.90
14049;DHT22;7099;53.922;10.728;2023-01-20T01:52:14;-0.10;73.80
14049;DHT22;7099;53.922;10.728;2023-01-20T01:56:21;-0.10;73.90
14049;DHT22;7099;53.922;10.728;2023-01-20T02:00:28;-0.10;73.90
14049;DHT22;7099;53.922;10.728;2023-01-20T02:04:34;-0.10;74.00
14049;DHT22;7099;53.922;10.728;2023-01-20T02:08:42;-0.10;73.90
14049;DHT22;7099;53.922;10.728;2023-01-20T02:12:48;-0.10;74.10
14049;DHT22;7099;53.922;10.728;2023-01-20T02:26:15;-0.10;74.30
14049;DHT22;7099;53.922;10.728;2023-01-20T02:35:40;-0.10;74.00
14049;DHT22;7099;53.922;10.728;2023-01-20T02:53:37;-0.20;74.30
14049;DHT22;7099;53.922;10.728;2023-01-20T02:57:53;-0.20;74.00
14049;DHT22;7099;53.922;10.728;2023-01-20T03:02:06;-0.20;74.20
14049;DHT22;7099;53.922;10.728;2023-01-20T03:06:21;-0.30;73.80
14049;DHT22;7099;53.922;10.728;2023-01-20T03:10:30;-0.20;74.50
14049;DHT22;7099;53.922;10.728;2023-01-20T03:14:37;-0.30;75.20
14049;DHT22;7099;53.922;10.728;2023-01-20T03:18:43;-0.20;74.50
14049;DHT22;7099;53.922;10.728;2023-01-20T03:22:49;-0.20;74.40
14049;DHT22;7099;53.922;10.728;2023-01-20T03:26:55;-0.20;74.50
14049;DHT22;7099;53.922;10.728;2023-01-20T03:31:09;-0.10;74.50
14049;DHT22;7099;53.922;10.728;2023-01-20T03:35:19;-0.20;74.20
14049;DHT22;7099;53.922;10.728;2023-01-20T03:39:25;-0.20;74.50
14049;DHT22;7099;53.922;10.728;2023-01-20T03:43:42;-0.20;74.40
14049;DHT22;7099;53.922;10.728;2023-01-20T03:48:07;-0.20;74.50
14049;DHT22;7099;53.922;10.728;2023-01-20T03:52:52;-0.30;74.30
14049;DHT22;7099;53.922;10.728;2023-01-20T03:57:24;-0.20;74.50
14049;DHT22;7099;53.922;10.728;2023-01-20T04:01:36;-0.30;74.50
14049;DHT22;7099;53.922;10.728;2023-01-20T04:05:44;-0.30;74.30
14049;DHT22;7099;53.922;10.728;2023-01-20T04:09:54;-0.30;74.20
14049;DHT22;7099;53.922;10.728;2023-01-20T04:14:02;-0.30;74.50
14049;DHT22;7099;53.922;10.728;2023-01-20T04:18:16;-0.30;74.70
14049;DHT22;7099;53.922;10.728;2023-01-20T04:22:33;-0.30;75.60
14049;DHT22;7099;53.922;10.728;2023-01-20T04:26:43;-0.30;75.20
14049;DHT22;7099;53.922;10.728;2023-01-20T04:30:49;-0.20;74.80
14049;DHT22;7099;53.922;10.728;2023-01-20T04:34:55;-0.20;75.40
14049;DHT22;7099;53.922;10.728;2023-01-20T04:39:00;-0.20;75.00
14049;DHT22;7099;53.922;10.728;2023-01-20T04:43:06;-0.20;75.30
14049;DHT22;7099;53.922;10.728;2023-01-20T04:47:11;-0.20;75.30
14049;DHT22;7099;53.922;10.728;2023-01-20T04:51:17;-0.10;75.70
14049;DHT22;7099;53.922;10.728;2023-01-20T04:55:22;-0.10;75.90
14049;DHT22;7099;53.922;10.728;2023-01-20T04:59:29;0.00;76.10
14049;DHT22;7099;53.922;10.728;2023-01-20T05:03:35;0.00;75.90
14049;DHT22;7099;53.922;10.728;2023-01-20T05:07:40;0.00;76.70
14049;DHT22;7099;53.922;10.728;2023-01-20T05:11:46;0.10;76.60
14049;DHT22;7099;53.922;10.728;2023-01-20T05:15:51;0.10;76.40
14049;DHT22;7099;53.922;10.728;2023-01-20T05:19:57;0.20;76.40
14049;DHT22;7099;53.922;10.728;2023-01-20T05:24:02;0.20;76.40
14049;DHT22;7099;53.922;10.728;2023-01-20T05:28:08;0.30;76.20
14049;DHT22;7099;53.922;10.728;2023-01-20T05:32:14;0.40;76.30
14049;DHT22;7099;53.922;10.728;2023-01-20T05:36:20;0.40;76.20
14049;DHT22;7099;53.922;10.728;2023-01-20T05:40:43;0.40;76.10
14049;DHT22;7099;53.922;10.728;2023-01-20T05:44:49;0.50;76.10
14049;DHT22;7099;53.922;10.728;2023-01-20T05:48:54;0.50;76.10
14049;DHT22;7099;53.922;10.728;2023-01-20T05:53:00;0.60;76.20
14049;DHT22;7099;53.922;10.728;2023-01-20T05:57:05;0.60;76.10
14049;DHT22;7099;53.922;10.728;2023-01-20T06:01:13;0.60;76.30
14049;DHT22;7099;53.922;10.728;2023-01-20T06:05:18;0.90;75.90
14049;DHT22;7099;53.922;10.728;2023-01-20T06:09:24;0.90;75.90
14049;DHT22;7099;53.922;10.728;2023-01-20T06:13:30;0.80;76.10
14049;DHT22;7099;53.922;10.728;2023-01-20T06:17:35;0.90;76.20
14049;DHT22;7099;53.922;10.728;2023-01-20T06:21:41;0.90;76.20
14049;DHT22;7099;53.922;10.728;2023-01-20T06:26:01;0.90;76.20
14049;DHT22;7099;53.922;10.728;2023-01-20T06:30:10;0.90;76.20
14049;DHT22;7099;53.922;10.728;2023-01-20T06:34:16;0.90;76.10
14049;DHT22;7099;53.922;10.728;2023-01-20T06:38:23;0.90;76.00
14049;DHT22;7099;53.922;10.728;2023-01-20T06:42:30;1.00;76.00
14049;DHT22;7099;53.922;10.728;2023-01-20T06:46:36;1.00;75.90
14049;DHT22;7099;53.922;10.728;2023-01-20T06:50:41;1.10;75.90
14049;DHT22;7099;53.922;10.728;2023-01-20T06:54:47;1.10;75.70
14049;DHT22;7099;53.922;10.728;2023-01-20T06:58:53;1.10;75.70
14049;DHT22;7099;53.922;10.728;2023-01-20T07:02:59;1.10;75.60
14049;DHT22;7099;53.922;10.728;2023-01-20T07:07:10;1.20;75.60
14049;DHT22;7099;53.922;10.728;2023-01-20T07:11:17;1.20;75.60
14049;DHT22;7099;53.922;10.728;2023-01-20T07:15:22;1.20;75.50
14049;DHT22;7099;53.922;10.728;2023-01-20T07:19:28;1.20;75.90
14049;DHT22;7099;53.922;10.728;2023-01-20T07:23:34;1.30;75.60
14049;DHT22;7099;53.922;10.728;2023-01-20T07:27:39;1.30;75.50
14049;DHT22;7099;53.922;10.728;2023-01-20T07:31:46;1.30;75.40
14049;DHT22;7099;53.922;10.728;2023-01-20T07:35:54;1.30;75.40
14049;DHT22;7099;53.922;10.728;2023-01-20T07:40:00;1.30;75.30
14049;DHT22;7099;53.922;10.728;2023-01-20T07:44:05;1.30;75.30
14049;DHT22;7099;53.922;10.728;2023-01-20T07:48:11;1.30;75.20
14049;DHT22;7099;53.922;10.728;2023-01-20T07:52:16;1.30;75.20
14049;DHT22;7099;53.922;10.728;2023-01-20T07:56:24;1.40;75.20
14049;DHT22;7099;53.922;10.728;2023-01-20T08:00:31;1.40;75.10
14049;DHT22;7099;53.922;10.728;2023-01-20T08:04:37;1.40;75.10
14049;DHT22;7099;53.922;10.728;2023-01-20T08:08:43;1.40;75.00
14049;DHT22;7099;53.922;10.728;2023-01-20T08:12:48;1.50;75.00
14049;DHT22;7099;53.922;10.728;2023-01-20T08:16:54;1.50;74.80
14049;DHT22;7099;53.922;10.728;2023-01-20T08:21:00;1.50;74.70
14049;DHT22;7099;53.922;10.728;2023-01-20T08:25:08;1.50;74.70
14049;DHT22;7099;53.922;10.728;2023-01-20T08:29:14;1.60;74.60
14049;DHT22;7099;53.922;10.728;2023-01-20T08:33:21;1.60;74.50
14049;DHT22;7099;53.922;10.728;2023-01-20T08:37:27;1.60;74.50
14049;DHT22;7099;53.922;10.728;2023-01-20T08:41:35;1.60;74.40
14049;DHT22;7099;53.922;10.728;2023-01-20T08:45:41;1.60;74.40
14049;DHT22;7099;53.922;10.728;2023-01-20T08:49:47;1.70;75.10
14049;DHT22;7099;53.922;10.728;2023-01-20T08:53:53;1.70;74.40
14049;DHT22;7099;53.922;10.728;2023-01-20T08:58:00;1.70;74.30
14049;DHT22;7099;53.922;10.728;2023-01-20T09:02:05;1.70;74.30
14049;DHT22;7099;53.922;10.728;2023-01-20T09:06:11;1.80;74.40
14049;DHT22;7099;53.922;10.728;2023-01-20T09:10:17;1.80;74.20
14049;DHT22;7099;53.922;10.728;2023-01-20T09:14:24;1.80;74.00
14049;DHT22;7099;53.922;10.728;2023-01-20T09:18:30;1.80;73.80
14049;DHT22;7099;53.922;10.728;2023-01-20T09:22:37;1.80;74.00
14049;DHT22;7099;53.922;10.728;2023-01-20T09:26:44;1.80;73.90
14049;DHT22;7099;53.922;10.728;2023-01-20T09:31:06;1.80;73.80
14049;DHT22;7099;53.922;10.728;2023-01-20T09:35:12;1.80;73.50
14049;DHT22;7099;53.922;10.728;2023-01-20T09:39:19;1.80;73.30
14049;DHT22;7099;53.922;10.728;2023-01-20T09:48:41;1.90;73.00
14049;DHT22;7099;53.922;10.728;2023-01-20T09:57:48;2.00;73.30
14049;DHT22;7099;53.922;10.728;2023-01-20T10:02:00;2.00;73.20
14049;DHT22;7099;53.922;10.728;2023-01-20T10:06:48;2.10;73.30
14049;DHT22;7099;53.922;10.728;2023-01-20T10:15:11;2.20;73.20
14049;DHT22;7099;53.922;10.728;2023-01-20T10:19:55;2.30;73.60
14049;DHT22;7099;53.922;10.728;2023-01-20T10:24:28;2.30;72.40
14049;DHT22;7099;53.922;10.728;2023-01-20T10:28:43;2.30;72.40
14049;DHT22;7099;53.922;10.728;2023-01-20T10:32:59;2.30;72.60
14049;DHT22;7099;53.922;10.728;2023-01-20T10:37:17;2.40;72.60
14049;DHT22;7099;53.922;10.728;2023-01-20T10:41:50;2.50;72.70
14049;DHT22;7099;53.922;10.728;2023-01-20T10:51:02;2.60;71.70
14049;DHT22;7099;53.922;10.728;2023-01-20T11:00:08;2.70;71.60
14049;DHT22;7099;53.922;10.728;2023-01-20T11:04:27;2.80;71.90
14049;DHT22;7099;53.922;10.728;2023-01-20T11:08:33;2.80;71.20
14049;DHT22;7099;53.922;10.728;2023-01-20T11:12:41;2.90;70.70
14049;DHT22;7099;53.922;10.728;2023-01-20T11:16:50;3.00;70.50
14049;DHT22;7099;53.922;10.728;2023-01-20T11:21:04;3.10;70.40
14049;DHT22;7099;53.922;10.728;2023-01-20T11:25:26;3.10;70.30
14049;DHT22;7099;53.922;10.728;2023-01-20T11:29:39;3.20;70.80
14049;DHT22;7099;53.922;10.728;2023-01-20T11:33:58;3.20;70.90
14049;DHT22;7099;53.922;10.728;2023-01-20T11:38:23;3.30;70.40
14049;DHT22;7099;53.922;10.728;2023-01-20T11:42:45;3.30;69.90
14049;DHT22;7099;53.922;10.728;2023-01-20T11:46:52;3.40;69.40
14049;DHT22;7099;53.922;10.728;2023-01-20T11:51:00;3.40;70.40
14049;DHT22;7099;53.922;10.728;2023-01-20T11:55:24;3.40;69.60
14049;DHT22;7099;53.922;10.728;2023-01-20T11:59:33;3.40;69.30
14049;DHT22;7099;53.922;10.728;2023-01-20T12:08:47;3.30;69.30
14049;DHT22;7099;53.922;10.728;2023-01-20T12:22:04;3.30;68.70
14049;DHT22;7099;53.922;10.728;2023-01-20T12:26:18;3.20;69.30
14049;DHT22;7099;53.922;10.728;2023-01-20T12:30:28;3.20;69.70
14049;DHT22;7099;53.922;10.728;2023-01-20T12:34:35;3.20;70.00
14049;DHT22;7099;53.922;10.728;2023-01-20T12:39:17;3.30;70.20
14049;DHT22;7099;53.922;10.728;2023-01-20T12:43:40;3.30;70.00
14049;DHT22;7099;53.922;10.728;2023-01-20T12:52:39;3.40;69.60
14049;DHT22;7099;53.922;10.728;2023-01-20T13:01:46;3.40;69.60
14049;DHT22;7099;53.922;10.728;2023-01-20T13:06:30;3.40;67.60
14049;DHT22;7099;53.922;10.728;2023-01-20T13:15:26;3.30;69.20
14049;DHT22;7099;53.922;10.728;2023-01-20T13:19:37;3.30;69.40
14049;DHT22;7099;53.922;10.728;2023-01-20T13:23:47;3.30;69.50
14049;DHT22;7099;53.922;10.728;2023-01-20T13:27:53;3.30;69.60
14049;DHT22;7099;53.922;10.728;2023-01-20T13:31:59;3.40;69.40
14049;DHT22;7099;53.922;10.728;2023-01-20T13:36:20;3.40;69.10
14049;DHT22;7099;53.922;10.728;2023-01-20T13:44:41;3.30;68.40
14049;DHT22;7099;53.922;10.728;2023-01-20T13:53:28;3.40;69.00
14049;DHT22;7099;53.922;10.728;2023-01-20T13:57:36;3.30;69.10
14049;DHT22;7099;53.922;10.728;2023-01-20T14:01:42;3.40;69.30
14049;DHT22;7099;53.922;10.728;2023-01-20T14:05:59;3.30;69.50
14049;DHT22;7099;53.922;10.728;2023-01-20T14:10:11;3.40;69.30
14049;DHT22;7099;53.922;10.728;2023-01-20T14:14:19;3.50;69.20
14049;DHT22;7099;53.922;10.728;2023-01-20T14:18:27;3.40;68.80
14049;DHT22;7099;53.922;10.728;2023-01-20T14:22:32;3.30;68.90
14049;DHT22;7099;53.922;10.728;2023-01-20T14:26:38;3.30;69.10
14049;DHT22;7099;53.922;10.728;2023-01-20T14:30:43;3.30;69.90
14049;DHT22;7099;53.922;10.728;2023-01-20T14:34:51;3.30;69.30
14049;DHT22;7099;53.922;10.728;2023-01-20T14:39:00;3.30;69.10
14049;DHT22;7099;53.922;10.728;2023-01-20T14:43:34;3.30;69.20
14049;DHT22;7099;53.922;10.728;2023-01-20T14:47:40;3.40;68.60
14049;DHT22;7099;53.922;10.728;2023-01-20T14:51:46;3.30;69.20
14049;DHT22;7099;53.922;10.728;2023-01-20T14:56:08;3.20;68.90
14049;DHT22;7099;53.922;10.728;2023-01-20T15:04:34;3.20;69.20
14049;DHT22;7099;53.922;10.728;2023-01-20T15:08:42;3.30;69.10
14049;DHT22;7099;53.922;10.728;2023-01-20T15:13:26;3.20;69.20
14049;DHT22;7099;53.922;10.728;2023-01-20T15:17:32;3.30;68.80
14049;DHT22;7099;53.922;10.728;2023-01-20T15:21:38;3.20;69.20
14049;DHT22;7099;53.922;10.728;2023-01-20T15:25:51;3.20;69.10
14049;DHT22;7099;53.922;10.728;2023-01-20T15:34:06;3.20;69.30
14049;DHT22;7099;53.922;10.728;2023-01-20T15:38:12;3.20;69.20
14049;DHT22;7099;53.922;10.728;2023-01-20T15:42:17;3.20;69.20
14049;DHT22;7099;53.922;10.728;2023-01-20T15:46:23;3.10;69.20
14049;DHT22;7099;53.922;10.728;2023-01-20T15:50:29;3.10;69.10
14049;DHT22;7099;53.922;10.728;2023-01-20T15:54:35;3.10;69.20
14049;DHT22;7099;53.922;10.728;2023-01-20T15:58:44;3.10;69.20
14049;DHT22;7099;53.922;10.728;2023-01-20T16:02:50;3.10;69.10
14049;DHT22;7099;53.922;10.728;2023-01-20T16:06:56;3.10;69.10
14049;DHT22;7099;53.922;10.728;2023-01-20T16:11:02;3.00;68.80
14049;DHT22;7099;53.922;10.728;2023-01-20T16:15:12;3.10;69.50
14049;DHT22;7099;53.922;10.728;2023-01-20T16:19:19;3.00;68.90
14049;DHT22;7099;53.922;10.728;2023-01-20T16:23:24;3.00;69.00
14049;DHT22;7099;53.922;10.728;2023-01-20T16:27:33;3.00;69.10
14049;DHT22;7099;53.922;10.728;2023-01-20T16:31:39;3.00;69.30
14049;DHT22;7099;53.922;10.728;2023-01-20T16:35:44;3.00;69.30
14049;DHT22;7099;53.922;10.728;2023-01-20T16:39:50;3.00;69.20
14049;DHT22;7099;53.922;10.728;2023-01-20T16:43:56;3.00;69.30
14049;DHT22;7099;53.922;10.728;2023-01-20T16:48:02;3.00;69.30
14049;DHT22;7099;53.922;10.728;2023-01-20T16:52:09;3.00;69.50
14049;DHT22;7099;53.922;10.728;2023-01-20T16:56:18;2.90;69.40
14049;DHT22;7099;53.922;10.728;2023-01-20T17:00:25;2.90;69.30
14049;DHT22;7099;53.922;10.728;2023-01-20T17:04:30;2.90;69.30
14049;DHT22;7099;53.922;10.728;2023-01-20T17:08:37;2.90;69.30
14049;DHT22;7099;53.922;10.728;2023-01-20T17:12:44;2.90;69.20
14049;DHT22;7099;53.922;10.728;2023-01-20T17:16:53;2.90;69.40
14049;DHT22;7099;53.922;10.728;2023-01-20T17:21:04;2.90;69.30
14049;DHT22;7099;53.922;10.728;2023-01-20T17:25:11;2.90;69.40
14049;DHT22;7099;53.922;10.728;2023-01-20T17:29:19;2.90;69.40
14049;DHT22;7099;53.922;10.728;2023-01-20T17:33:26;2.90;69.50
14049;DHT22;7099;53.922;10.728;2023-01-20T17:37:31;2.80;69.20
14049;DHT22;7099;53.922;10.728;2023-01-20T17:41:37;2.80;69.40
14049;DHT22;7099;53.922;10.728;2023-01-20T17:45:42;2.80;70.00
14049;DHT22;7099;53.922;10.728;2023-01-20T17:49:48;2.70;69.30
14049;DHT22;7099;53.922;10.728;2023-01-20T17:53:54;2.80;69.30
14049;DHT22;7099;53.922;10.728;2023-01-20T17:58:01;2.70;69.20
14049;DHT22;7099;53.922;10.728;2023-01-20T18:02:10;2.70;69.20
14049;DHT22;7099;53.922;10.728;2023-01-20T18:06:20;2.70;69.40
14049;DHT22;7099;53.922;10.728;2023-01-20T18:10:26;2.70;69.30
14049;DHT22;7099;53.922;10.728;2023-01-20T18:14:32;2.70;69.20
14049;DHT22;7099;53.922;10.728;2023-01-20T18:18:38;2.70;69.20
14049;DHT22;7099;53.922;10.728;2023-01-20T18:22:48;2.70;69.30
14049;DHT22;7099;53.922;10.728;2023-01-20T18:26:58;2.70;69.20
14049;DHT22;7099;53.922;10.728;2023-01-20T18:31:06;2.70;70.00
14049;DHT22;7099;53.922;10.728;2023-01-20T18:35:13;2.70;69.30
14049;DHT22;7099;53.922;10.728;2023-01-20T18:39:21;2.70;69.30
14049;DHT22;7099;53.922;10.728;2023-01-20T18:43:29;2.70;69.40
14049;DHT22;7099;53.922;10.728;2023-01-20T18:47:34;2.70;69.50
14049;DHT22;7099;53.922;10.728;2023-01-20T18:51:40;2.60;69.40
14049;DHT22;7099;53.922;10.728;2023-01-20T18:55:46;2.70;69.60
14049;DHT22;7099;53.922;10.728;2023-01-20T18:59:51;2.60;69.70
14049;DHT22;7099;53.922;10.728;2023-01-20T19:03:57;2.70;69.60
14049;DHT22;7099;53.922;10.728;2023-01-20T19:08:03;2.70;69.60
14049;DHT22;7099;53.922;10.728;2023-01-20T19:12:09;2.70;69.60
14049;DHT22;7099;53.922;10.728;2023-01-20T19:16:16;2.70;69.70
14049;DHT22;7099;53.922;10.728;2023-01-20T19:20:22;2.70;69.70
14049;DHT22;7099;53.922;10.728;2023-01-20T19:24:28;2.70;69.70
14049;DHT22;7099;53.922;10.728;2023-01-20T19:28:34;2.70;69.70
14049;DHT22;7099;53.922;10.728;2023-01-20T19:32:40;2.70;69.70
14049;DHT22;7099;53.922;10.728;2023-01-20T19:36:46;2.70;69.60
14049;DHT22;7099;53.922;10.728;2023-01-20T19:40:52;2.70;69.60
14049;DHT22;7099;53.922;10.728;2023-01-20T19:44:57;2.70;69.60
14049;DHT22;7099;53.922;10.728;2023-01-20T19:49:03;2.70;69.70
14049;DHT22;7099;53.922;10.728;2023-01-20T19:53:08;2.70;69.70
14049;DHT22;7099;53.922;10.728;2023-01-20T19:57:14;2.70;70.40
14049;DHT22;7099;53.922;10.728;2023-01-20T20:05:36;2.70;69.80
14049;DHT22;7099;53.922;10.728;2023-01-20T20:09:42;2.70;69.60
14049;DHT22;7099;53.922;10.728;2023-01-20T20:13:48;2.70;69.80
14049;DHT22;7099;53.922;10.728;2023-01-20T20:17:56;2.70;69.70
14049;DHT22;7099;53.922;10.728;2023-01-20T20:22:02;2.70;70.00
14049;DHT22;7099;53.922;10.728;2023-01-20T20:26:10;2.70;70.00
14049;DHT22;7099;53.922;10.728;2023-01-20T20:30:16;2.70;69.80
14049;DHT22;7099;53.922;10.728;2023-01-20T20:34:23;2.70;69.80
14049;DHT22;7099;53.922;10.728;2023-01-20T20:38:28;2.70;70.00
14049;DHT22;7099;53.922;10.728;2023-01-20T20:42:34;2.70;70.00
14049;DHT22;7099;53.922;10.728;2023-01-20T20:46:40;2.70;70.00
14049;DHT22;7099;53.922;10.728;2023-01-20T20:50:45;2.70;70.20
14049;DHT22;7099;53.922;10.728;2023-01-20T20:54:51;2.70;70.10
14049;DHT22;7099;53.922;10.728;2023-01-20T20:59:01;2.70;70.10
14049;DHT22;7099;53.922;10.728;2023-01-20T21:03:07;2.70;70.10
14049;DHT22;7099;53.922;10.728;2023-01-20T21:07:15;2.70;70.10
14049;DHT22;7099;53.922;10.728;2023-01-20T21:11:20;2.70;70.20
14049;DHT22;7099;53.922;10.728;2023-01-20T21:15:26;2.70;70.30
14049;DHT22;7099;53.922;10.728;2023-01-20T21:19:32;2.70;70.50
14049;DHT22;7099;53.922;10.728;2023-01-20T21:23:37;2.80;70.50
14049;DHT22;7099;53.922;10.728;2023-01-20T21:27:44;2.80;70.60
14049;DHT22;7099;53.922;10.728;2023-01-20T21:31:50;2.70;70.60
14049;DHT22;7099;53.922;10.728;2023-01-20T21:36:00;2.80;70.70
14049;DHT22;7099;53.922;10.728;2023-01-20T21:40:06;2.70;70.80
14049;DHT22;7099;53.922;10.728;2023-01-20T21:44:13;2.80;70.80
14049;DHT22;7099;53.922;10.728;2023-01-20T21:48:34;2.80;70.80
14049;DHT22;7099;53.922;10.728;2023-01-20T21:52:57;2.80;70.80
14049;DHT22;7099;53.922;10.728;2023-01-20T21:57:03;2.80;70.90
14049;DHT22;7099;53.922;10.728;2023-01-20T22:01:08;2.80;71.00
14049;DHT22;7099;53.922;10.728;2023-01-20T22:05:14;2.80;71.00
14049;DHT22;7099;53.922;10.728;2023-01-20T22:09:20;2.80;71.10
14049;DHT22;7099;53.922;10.728;2023-01-20T22:13:26;2.80;71.10
14049;DHT22;7099;53.922;10.728;2023-01-20T22:17:32;2.80;71.20
14049;DHT22;7099;53.922;10.728;2023-01-20T22:21:38;2.80;71.30
14049;DHT22;7099;53.922;10.728;2023-01-20T22:25:43;2.70;71.30
14049;DHT22;7099;53.922;10.728;2023-01-20T22:29:49;2.70;71.40
14049;DHT22;7099;53.922;10.728;2023-01-20T22:33:56;2.70;71.50
14049;DHT22;7099;53.922;10.728;2023-01-20T22:38:02;2.70;71.50
14049;DHT22;7099;53.922;10.728;2023-01-20T22:42:08;2.70;71.60
14049;DHT22;7099;53.922;10.728;2023-01-20T22:46:15;2.70;71.70
14049;DHT22;7099;53.922;10.728;2023-01-20T22:50:22;2.70;71.90
14049;DHT22;7099;53.922;10.728;2023-01-20T22:54:28;2.70;72.00
14049;DHT22;7099;53.922;10.728;2023-01-20T22:58:33;2.70;72.00
14049;DHT22;7099;53.922;10.728;2023-01-20T23:02:39;2.70;72.10
14049;DHT22;7099;53.922;10.728;2023-01-20T23:06:44;2.70;72.20
14049;DHT22;7099;53.922;10.728;2023-01-20T23:10:57;2.70;72.20
14049;DHT22;7099;53.922;10.728;2023-01-20T23:15:04;2.70;72.40
14049;DHT22;7099;53.922;10.728;2023-01-20T23:19:10;2.70;72.40
14049;DHT22;7099;53.922;10.728;2023-01-20T23:23:17;2.80;72.40
14049;DHT22;7099;53.922;10.728;2023-01-20T23:27:23;2.80;72.30
14049;DHT22;7099;53.922;10.728;2023-01-20T23:31:28;2.80;72.30
14049;DHT22;7099;53.922;10.728;2023-01-20T23:35:37;2.80;72.30
14049;DHT22;7099;53.922;10.728;2023-01-20T23:39:43;2.70;72.20
14049;DHT22;7099;53.922;10.728;2023-01-20T23:43:48;2.80;72.40
14049;DHT22;7099;53.922;10.728;2023-01-20T23:47:54;2.80;72.40
14049;DHT22;7099;53.922;10.728;2023-01-20T23:52:00;2.80;72.50
14049;DHT22;7099;53.922;10.728;2023-01-20T23:56:09;2.80;72.40
